createdAt,value
2019-04-30T00:00:18.935Z,46.23
2019-04-30T00:02:57.622Z,41.83
2019-04-30T00:05:25.941Z,42.43
2019-04-30T00:07:57.426Z,43.57
2019-04-30T00:10:29.109Z,43.60
2019-04-30T00:12:55.468Z,47.93
2019-04-30T00:15:25.699Z,51.20
2019-04-30T00:17:58.692Z,48.38
2019-04-30T00:20:25.614Z,48.13
2019-04-30T00:22:55.296Z,45.73
2019-04-30T00:25:27.011Z,46.08
2019-04-30T00:27:55.824Z,46.83
2019-04-30T00:30:25.211Z,46.95
2019-04-30T00:32:55.576Z,57.17
2019-04-30T00:35:25.365Z,44.73
2019-04-30T00:37:57.630Z,45.10
2019-04-30T00:40:28.688Z,48.45
2019-04-30T00:42:55.885Z,45.15
2019-04-30T00:45:25.184Z,46.63
2019-04-30T00:47:53.580Z,49.08
2019-04-30T00:50:21.853Z,48.00
2019-04-30T00:52:50.152Z,49.18
2019-04-30T00:55:18.749Z,48.40
2019-04-30T00:57:47.562Z,46.98
2019-04-30T01:00:19.612Z,48.40
2019-04-30T01:02:48.336Z,46.83
2019-04-30T01:05:18.278Z,45.95
2019-04-30T01:07:50.245Z,47.78
2019-04-30T01:10:19.648Z,44.20
2019-04-30T01:12:50.135Z,46.85
2019-04-30T01:15:18.948Z,45.23
2019-04-30T01:17:51.088Z,45.35
2019-04-30T01:20:19.372Z,49.20
2019-04-30T01:22:48.657Z,46.13
2019-04-30T01:25:18.743Z,43.83
2019-04-30T01:27:49.122Z,44.50
2019-04-30T01:30:22.687Z,47.17
2019-04-30T01:32:52.176Z,47.20
2019-04-30T01:35:19.240Z,42.93
2019-04-30T01:37:48.764Z,51.13
2019-04-30T01:40:18.965Z,44.85
2019-04-30T01:42:48.557Z,45.12
2019-04-30T01:45:18.740Z,46.88
2019-04-30T01:47:47.226Z,47.73
2019-04-30T01:50:15.594Z,48.48
2019-04-30T01:52:52.645Z,49.15
2019-04-30T01:55:29.409Z,48.20
2019-04-30T01:58:05.448Z,49.55
2019-04-30T02:00:35.364Z,48.80
2019-04-30T02:03:03.651Z,46.57
2019-04-30T02:05:31.937Z,52.83
2019-04-30T02:08:00.255Z,45.40
2019-04-30T02:10:28.664Z,51.70
2019-04-30T02:12:58.948Z,47.30
2019-04-30T02:15:29.041Z,47.90
2019-04-30T02:17:58.687Z,47.93
2019-04-30T02:20:28.671Z,49.95
2019-04-30T02:22:58.641Z,50.52
2019-04-30T02:25:27.086Z,46.10
2019-04-30T02:27:55.401Z,49.47
2019-04-30T02:30:24.966Z,46.88
2019-04-30T02:32:53.261Z,45.58
2019-04-30T02:35:32.420Z,43.40
2019-04-30T02:38:10.963Z,52.10
2019-04-30T02:40:42.454Z,46.20
2019-04-30T02:43:10.951Z,41.83
2019-04-30T02:45:40.886Z,43.98
2019-04-30T02:48:11.752Z,48.98
2019-04-30T02:50:40.631Z,45.55
2019-04-30T02:53:14.993Z,47.13
2019-04-30T02:55:44.262Z,45.40
2019-04-30T02:58:12.938Z,49.50
2019-04-30T03:00:41.292Z,46.68
2019-04-30T03:03:10.266Z,44.18
2019-04-30T03:05:39.250Z,42.15
2019-04-30T03:08:09.602Z,42.25
2019-04-30T03:10:39.697Z,49.57
2019-04-30T03:13:09.676Z,42.00
2019-04-30T03:15:39.461Z,43.42
2019-04-30T03:18:10.017Z,42.98
2019-04-30T03:20:49.864Z,41.80
2019-04-30T03:23:19.558Z,41.85
2019-04-30T03:25:50.184Z,42.30
2019-04-30T03:28:20.187Z,39.53
2019-04-30T03:30:56.196Z,43.13
2019-04-30T03:33:22.659Z,42.98
2019-04-30T03:35:53.699Z,43.92
2019-04-30T03:38:20.434Z,43.80
2019-04-30T03:40:50.282Z,41.37
2019-04-30T03:43:20.127Z,41.58
2019-04-30T03:45:49.924Z,44.23
2019-04-30T03:48:20.006Z,42.83
2019-04-30T03:50:53.387Z,44.38
2019-04-30T03:53:20.192Z,43.75
2019-04-30T03:55:50.521Z,43.10
2019-04-30T03:58:21.155Z,44.77
2019-04-30T04:01:00.529Z,40.23
2019-04-30T04:03:29.704Z,42.85
2019-04-30T04:06:21.291Z,40.17
2019-04-30T04:08:51.975Z,44.48
2019-04-30T04:11:21.931Z,39.70
2019-04-30T04:13:50.239Z,41.98
2019-04-30T04:16:19.480Z,45.83
2019-04-30T04:18:50.097Z,42.67
2019-04-30T04:21:20.489Z,39.80
2019-04-30T04:23:49.321Z,41.92
2019-04-30T04:26:20.243Z,38.35
2019-04-30T04:28:49.597Z,41.48
2019-04-30T04:31:19.331Z,37.55
2019-04-30T04:33:49.631Z,37.42
2019-04-30T04:36:19.944Z,38.50
2019-04-30T04:38:50.557Z,41.73
2019-04-30T04:41:19.815Z,41.80
2019-04-30T04:43:50.477Z,34.57
2019-04-30T04:46:20.599Z,37.50
2019-04-30T04:48:49.354Z,33.73
2019-04-30T04:51:31.264Z,39.85
2019-04-30T04:53:50.044Z,36.20
2019-04-30T04:56:19.128Z,37.83
2019-04-30T04:58:49.967Z,34.38
2019-04-30T05:01:20.168Z,37.13
2019-04-30T05:03:49.011Z,35.23
2019-04-30T05:06:20.712Z,37.85
2019-04-30T05:08:49.222Z,36.83
2019-04-30T05:11:19.215Z,39.83
2019-04-30T05:13:49.024Z,36.80
2019-04-30T05:16:19.106Z,38.90
2019-04-30T05:18:48.780Z,40.10
2019-04-30T05:21:18.807Z,31.95
2019-04-30T05:23:49.259Z,34.03
2019-04-30T05:26:19.133Z,31.52
2019-04-30T05:28:51.073Z,30.82
2019-04-30T05:31:18.486Z,34.17
2019-04-30T05:33:48.915Z,30.50
2019-04-30T05:36:19.206Z,32.53
2019-04-30T05:38:48.776Z,33.18
2019-04-30T05:41:19.143Z,30.85
2019-04-30T05:43:48.829Z,33.38
2019-04-30T05:46:17.283Z,30.62
2019-04-30T05:48:45.560Z,33.73
2019-04-30T05:51:13.870Z,35.03
2019-04-30T05:53:42.542Z,31.50
2019-04-30T05:56:10.849Z,34.60
2019-04-30T05:58:39.816Z,32.55
2019-04-30T06:01:09.675Z,33.48
2019-04-30T06:03:38.578Z,31.33
2019-04-30T06:06:08.813Z,31.50
2019-04-30T06:08:39.325Z,31.43
2019-04-30T06:11:11.690Z,33.60
2019-04-30T06:13:56.349Z,31.25
2019-04-30T06:16:26.300Z,32.93
2019-04-30T06:18:54.589Z,30.60
2019-04-30T06:21:22.896Z,33.58
2019-04-30T06:23:51.192Z,29.98
2019-04-30T06:26:20.719Z,34.80
2019-04-30T06:28:49.773Z,32.70
2019-04-30T06:31:26.075Z,35.33
2019-04-30T06:33:48.726Z,31.85
2019-04-30T06:36:19.057Z,34.17
2019-04-30T06:38:48.876Z,32.17
2019-04-30T06:41:17.181Z,34.80
2019-04-30T06:43:45.561Z,29.12
2019-04-30T06:46:13.863Z,32.78
2019-04-30T06:48:42.327Z,33.70
2019-04-30T06:51:10.642Z,35.33
2019-04-30T06:53:39.230Z,32.88
2019-04-30T06:56:08.934Z,27.82
2019-04-30T06:58:38.826Z,30.70
2019-04-30T07:01:09.404Z,32.80
2019-04-30T07:03:38.836Z,28.02
2019-04-30T07:06:08.377Z,29.80
2019-04-30T07:08:42.448Z,28.98
2019-04-30T07:11:21.916Z,30.05
2019-04-30T07:13:52.172Z,31.50
2019-04-30T07:16:20.759Z,30.68
2019-04-30T07:18:49.085Z,28.95
2019-04-30T07:23:48.542Z,31.30
2019-04-30T07:26:22.660Z,30.15
2019-04-30T07:28:52.694Z,30.27
2019-04-30T07:31:19.195Z,30.73
2019-04-30T07:33:51.468Z,29.80
2019-04-30T07:36:19.378Z,33.50
2019-04-30T07:38:54.197Z,32.23
2019-04-30T07:41:18.967Z,32.15
2019-04-30T07:43:49.363Z,34.33
2019-04-30T07:46:19.779Z,30.57
2019-04-30T07:48:49.944Z,31.40
2019-04-30T07:51:20.357Z,26.67
2019-04-30T07:53:49.622Z,32.75
2019-04-30T07:56:25.608Z,32.53
2019-04-30T07:58:50.275Z,31.50
2019-04-30T08:01:19.590Z,29.47
2019-04-30T08:03:52.983Z,38.78
2019-04-30T08:06:22.377Z,36.23
2019-04-30T08:08:54.666Z,29.90
2019-04-30T08:09:31.419Z,40.78
2019-04-30T08:11:25.710Z,28.17
2019-04-30T08:13:51.408Z,30.62
2019-04-30T08:16:19.970Z,31.20
2019-04-30T08:18:49.259Z,28.10
2019-04-30T08:21:19.023Z,29.33
2019-04-30T08:23:48.915Z,30.35
2019-04-30T08:26:18.788Z,27.70
2019-04-30T08:28:48.772Z,33.38
2019-04-30T08:31:19.384Z,34.00
2019-04-30T08:33:49.085Z,29.77
2019-04-30T08:36:19.541Z,32.85
2019-04-30T08:38:49.387Z,29.90
2019-04-30T08:41:19.335Z,27.93
2019-04-30T08:43:49.653Z,30.50
2019-04-30T08:46:19.014Z,28.10
2019-04-30T08:48:53.081Z,30.30
2019-04-30T08:51:19.031Z,29.32
2019-04-30T08:53:48.619Z,34.00
2019-04-30T08:56:17.075Z,30.20
2019-04-30T08:58:45.366Z,30.23
2019-04-30T09:01:13.640Z,31.35
2019-04-30T09:03:41.985Z,30.52
2019-04-30T09:06:14.631Z,25.20
2019-04-30T09:08:43.310Z,28.02
2019-04-30T09:11:22.559Z,29.05
2019-04-30T09:13:41.935Z,29.85
2019-04-30T09:16:10.218Z,31.17
2019-04-30T09:18:39.365Z,29.98
2019-04-30T09:21:08.994Z,30.32
2019-04-30T09:23:47.259Z,27.55
2019-04-30T09:26:08.654Z,27.67
2019-04-30T09:28:40.852Z,30.12
2019-04-30T09:31:08.746Z,44.88
2019-04-30T09:33:37.033Z,31.57
2019-04-30T09:36:09.031Z,32.40
2019-04-30T09:38:38.924Z,34.15
2019-04-30T09:41:09.157Z,34.88
2019-04-30T09:43:37.591Z,31.42
2019-04-30T09:46:19.011Z,26.95
2019-04-30T09:48:35.914Z,33.33
2019-04-30T09:51:04.992Z,33.60
2019-04-30T09:53:33.783Z,32.33
2019-04-30T09:56:02.375Z,32.98
2019-04-30T09:58:30.655Z,33.40
2019-04-30T10:00:59.401Z,34.73
2019-04-30T10:03:30.292Z,35.52
2019-04-30T10:05:59.039Z,34.95
2019-04-30T10:08:30.169Z,35.03
2019-04-30T10:11:14.611Z,31.37
2019-04-30T10:13:42.895Z,27.32
2019-04-30T10:16:15.913Z,31.30
2019-04-30T10:18:44.219Z,30.65
2019-04-30T10:21:12.533Z,34.23
2019-04-30T10:23:40.819Z,29.67
2019-04-30T10:26:09.125Z,25.90
2019-04-30T10:28:38.989Z,27.20
2019-04-30T10:31:07.339Z,38.75
2019-04-30T10:33:35.988Z,30.75
2019-04-30T10:36:04.363Z,36.73
2019-04-30T10:38:32.733Z,31.93
2019-04-30T10:41:01.103Z,31.73
2019-04-30T10:43:32.056Z,30.20
2019-04-30T10:45:59.725Z,27.60
2019-04-30T10:48:28.016Z,29.43
2019-04-30T10:50:56.307Z,30.90
2019-04-30T10:53:24.582Z,30.55
2019-04-30T10:55:52.896Z,29.60
2019-04-30T10:58:21.230Z,29.18
2019-04-30T11:00:49.920Z,30.80
2019-04-30T11:03:22.479Z,25.77
2019-04-30T11:05:48.784Z,27.15
2019-04-30T11:08:17.179Z,25.85
2019-04-30T11:10:45.532Z,24.87
2019-04-30T11:13:14.241Z,25.00
2019-04-30T11:15:42.846Z,24.72
2019-04-30T11:18:11.661Z,28.87
2019-04-30T11:20:40.167Z,24.60
2019-04-30T11:23:14.754Z,27.82
2019-04-30T11:25:41.009Z,26.07
2019-04-30T11:28:09.511Z,26.12
2019-04-30T11:30:39.212Z,25.57
2019-04-30T11:33:07.979Z,63.65
2019-04-30T11:35:36.692Z,24.87
2019-04-30T11:38:05.265Z,22.70
2019-04-30T11:40:37.187Z,22.17
2019-04-30T11:43:03.952Z,23.50
2019-04-30T11:45:50.508Z,25.92
2019-04-30T11:48:19.144Z,20.45
2019-04-30T11:50:49.542Z,24.12
2019-04-30T11:53:25.317Z,19.62
2019-04-30T11:55:49.180Z,24.02
2019-04-30T11:58:21.703Z,19.82
2019-04-30T12:00:49.477Z,19.77
2019-04-30T12:03:19.214Z,20.92
2019-04-30T12:05:49.155Z,20.15
2019-04-30T12:08:19.478Z,20.62
2019-04-30T12:10:58.341Z,17.82
2019-04-30T12:13:27.915Z,21.90
2019-04-30T12:15:58.634Z,17.53
2019-04-30T12:18:26.856Z,33.30
2019-04-30T12:20:55.153Z,22.58
2019-04-30T12:23:23.444Z,38.53
2019-04-30T12:25:51.718Z,54.83
2019-04-30T12:28:20.092Z,18.52
2019-04-30T12:30:49.066Z,23.07
2019-04-30T12:33:19.189Z,16.42
2019-04-30T12:35:49.170Z,17.65
2019-04-30T12:38:19.130Z,17.10
2019-04-30T12:40:47.987Z,13.40
2019-04-30T12:43:16.303Z,13.20
2019-04-30T12:45:44.575Z,18.37
2019-04-30T12:48:14.866Z,16.23
2019-04-30T12:50:44.800Z,12.80
2019-04-30T12:53:14.752Z,13.35
2019-04-30T12:55:50.434Z,16.95
2019-04-30T12:58:20.696Z,17.50
2019-04-30T13:00:49.376Z,18.92
2019-04-30T13:03:17.658Z,17.27
2019-04-30T13:05:46.347Z,21.52
2019-04-30T13:08:16.398Z,16.48
2019-04-30T13:10:45.555Z,17.45
2019-04-30T13:13:15.082Z,13.93
2019-04-30T13:15:43.715Z,17.00
2019-04-30T13:18:11.995Z,21.90
2019-04-30T13:20:40.376Z,15.63
2019-04-30T13:23:09.038Z,17.42
2019-04-30T13:25:48.965Z,15.32
2019-04-30T13:28:09.008Z,16.73
2019-04-30T13:30:39.576Z,18.95
2019-04-30T13:33:09.666Z,17.00
2019-04-30T13:35:38.895Z,21.82
2019-04-30T13:38:15.115Z,20.30
2019-04-30T13:40:45.052Z,18.52
2019-04-30T13:43:15.005Z,19.27
2019-04-30T13:45:43.602Z,18.95
2019-04-30T13:48:11.892Z,15.03
2019-04-30T13:50:40.191Z,18.67
2019-04-30T13:53:08.964Z,16.35
2019-04-30T13:55:45.571Z,19.32
2019-04-30T13:58:07.740Z,17.37
2019-04-30T14:00:36.058Z,18.87
2019-04-30T14:03:48.921Z,21.93
2019-04-30T14:06:19.291Z,21.27
2019-04-30T14:08:49.233Z,17.48
2019-04-30T14:11:18.982Z,20.70
2019-04-30T14:13:47.419Z,18.55
2019-04-30T14:16:15.934Z,16.35
2019-04-30T14:18:44.250Z,22.40
2019-04-30T14:21:12.647Z,20.77
2019-04-30T14:23:40.948Z,22.45
2019-04-30T14:26:09.418Z,23.65
2019-04-30T14:28:39.120Z,24.72
2019-04-30T14:31:07.709Z,20.23
2019-04-30T14:33:35.991Z,19.20
2019-04-30T14:36:04.369Z,18.45
2019-04-30T14:38:32.724Z,18.40
2019-04-30T14:41:02.043Z,18.65
2019-04-30T14:43:35.726Z,20.65
2019-04-30T14:46:06.323Z,18.32
2019-04-30T14:48:46.571Z,18.20
2019-04-30T14:51:15.395Z,17.47
2019-04-30T14:54:00.144Z,15.47
2019-04-30T14:56:30.087Z,23.35
2019-04-30T14:59:16.535Z,17.50
2019-04-30T15:01:46.475Z,19.10
2019-04-30T15:04:14.786Z,17.75
2019-04-30T15:06:43.072Z,18.82
2019-04-30T15:09:12.364Z,20.20
2019-04-30T15:11:40.721Z,20.30
2019-04-30T15:14:09.033Z,20.68
2019-04-30T15:16:37.694Z,16.95
2019-04-30T15:19:06.115Z,19.12
2019-04-30T15:21:34.435Z,18.10
2019-04-30T15:24:09.246Z,22.90
2019-04-30T15:26:40.689Z,17.27
2019-04-30T15:29:10.224Z,20.35
2019-04-30T15:31:39.444Z,25.52
2019-04-30T15:34:11.061Z,18.70
2019-04-30T15:36:39.577Z,18.35
2019-04-30T15:39:15.449Z,20.50
2019-04-30T15:41:43.745Z,19.20
2019-04-30T15:44:12.486Z,18.60
2019-04-30T15:46:40.775Z,18.65
2019-04-30T15:49:09.117Z,17.40
2019-04-30T15:51:37.569Z,19.20
2019-04-30T15:54:06.146Z,20.55
2019-04-30T15:56:37.642Z,21.95
2019-04-30T15:59:12.231Z,19.42
2019-04-30T16:01:42.449Z,25.55
2019-04-30T16:04:12.367Z,21.65
2019-04-30T16:06:40.691Z,24.65
2019-04-30T16:09:11.142Z,23.22
2019-04-30T16:11:41.024Z,22.40
2019-04-30T16:14:13.661Z,21.35
2019-04-30T16:16:43.632Z,22.60
2019-04-30T16:19:11.920Z,25.10
2019-04-30T16:21:40.309Z,22.05
2019-04-30T16:24:08.850Z,25.85
2019-04-30T16:26:47.302Z,25.23
2019-04-30T16:29:07.196Z,22.85
2019-04-30T16:31:35.836Z,27.13
2019-04-30T16:34:04.404Z,24.60
2019-04-30T16:36:32.728Z,25.32
2019-04-30T16:39:01.055Z,25.70
2019-04-30T16:41:31.860Z,27.45
2019-04-30T16:43:59.499Z,29.50
2019-04-30T16:46:29.510Z,25.87
2019-04-30T16:48:58.726Z,27.50
2019-04-30T16:51:28.867Z,25.57
2019-04-30T16:53:58.652Z,26.25
2019-04-30T16:56:28.622Z,37.30
2019-04-30T16:59:00.179Z,29.57
2019-04-30T17:01:28.807Z,28.90
2019-04-30T17:03:59.071Z,30.20
2019-04-30T17:06:29.036Z,25.43
2019-04-30T17:08:58.972Z,29.10
2019-04-30T17:11:45.366Z,27.05
2019-04-30T17:14:15.543Z,24.15
2019-04-30T17:16:43.870Z,29.27
2019-04-30T17:19:12.184Z,27.60
2019-04-30T17:21:40.500Z,25.02
2019-04-30T17:24:08.910Z,25.05
2019-04-30T17:26:39.103Z,27.30
2019-04-30T17:29:07.239Z,27.10
2019-04-30T17:31:35.550Z,24.55
2019-04-30T17:34:03.942Z,27.60
2019-04-30T17:36:32.250Z,28.90
2019-04-30T17:39:00.585Z,33.13
2019-04-30T17:41:28.986Z,26.27
2019-04-30T17:43:58.957Z,29.40
2019-04-30T17:46:28.520Z,27.20
2019-04-30T17:48:56.869Z,25.82
2019-04-30T17:51:25.175Z,29.32
2019-04-30T17:54:11.536Z,28.95
2019-04-30T17:56:40.087Z,25.08
2019-04-30T17:59:08.534Z,31.77
2019-04-30T18:01:39.950Z,24.43
2019-04-30T18:04:08.774Z,24.75
2019-04-30T18:06:37.210Z,25.92
2019-04-30T18:09:10.793Z,28.23
2019-04-30T18:11:39.630Z,27.00
2019-04-30T18:14:08.843Z,29.50
2019-04-30T18:16:38.647Z,26.30
2019-04-30T18:19:08.993Z,28.05
2019-04-30T18:21:41.910Z,26.52
2019-04-30T18:24:30.664Z,29.60
2019-04-30T18:27:00.600Z,27.13
2019-04-30T18:29:29.510Z,22.35
2019-04-30T18:31:59.865Z,21.37
2019-04-30T18:34:29.225Z,26.07
2019-04-30T18:36:59.341Z,25.13
2019-04-30T18:39:28.868Z,23.25
2019-04-30T18:41:57.380Z,20.80
2019-04-30T18:44:26.094Z,21.50
2019-04-30T18:46:54.428Z,25.92
2019-04-30T18:49:22.778Z,25.57
2019-04-30T18:51:51.432Z,21.57
2019-04-30T18:54:20.924Z,22.30
2019-04-30T18:56:49.338Z,23.20
2019-04-30T18:59:19.639Z,23.50
2019-04-30T19:01:48.046Z,20.77
2019-04-30T19:04:16.371Z,25.37
2019-04-30T19:06:44.732Z,30.10
2019-04-30T19:09:30.366Z,23.70
2019-04-30T19:12:06.062Z,25.45
2019-04-30T19:14:52.462Z,24.00
2019-04-30T19:17:40.864Z,24.43
2019-04-30T19:20:13.528Z,28.02
2019-04-30T19:22:41.812Z,23.30
2019-04-30T19:25:10.964Z,28.83
2019-04-30T19:27:39.263Z,24.05
2019-04-30T19:30:09.275Z,27.07
2019-04-30T19:32:39.008Z,27.85
2019-04-30T19:35:09.094Z,29.67
2019-04-30T19:37:38.621Z,35.98
2019-04-30T19:40:08.976Z,28.98
2019-04-30T19:42:39.435Z,29.42
2019-04-30T19:45:10.109Z,27.45
2019-04-30T19:47:39.064Z,28.57
2019-04-30T19:50:09.365Z,26.95
2019-04-30T19:52:37.825Z,26.33
2019-04-30T19:55:06.890Z,25.12
2019-04-30T19:57:35.230Z,29.10
2019-04-30T20:00:03.821Z,25.70
2019-04-30T20:02:32.178Z,28.67
2019-04-30T20:05:01.250Z,28.47
2019-04-30T20:07:29.693Z,32.93
2019-04-30T20:10:03.474Z,27.58
2019-04-30T20:12:29.099Z,27.10
2019-04-30T20:14:57.415Z,24.15
2019-04-30T20:17:25.731Z,27.98
2019-04-30T20:19:54.045Z,28.57
2019-04-30T20:22:22.614Z,26.82
2019-04-30T20:24:51.365Z,27.32
2019-04-30T20:27:19.884Z,30.75
2019-04-30T20:29:49.343Z,28.25
2019-04-30T20:32:20.824Z,26.48
2019-04-30T20:34:48.940Z,60.17
2019-04-30T20:37:19.644Z,45.08
2019-04-30T20:39:52.332Z,30.52
2019-04-30T20:42:20.621Z,25.77
2019-04-30T20:44:49.125Z,28.77
2019-04-30T20:47:18.411Z,26.62
2019-04-30T20:49:48.976Z,26.97
2019-04-30T20:52:20.401Z,26.62
2019-04-30T20:54:48.842Z,27.77
2019-04-30T20:57:17.191Z,25.97
2019-04-30T20:59:45.486Z,32.17
2019-04-30T21:02:13.783Z,27.77
2019-04-30T21:04:42.141Z,26.45
2019-04-30T21:07:10.463Z,29.27
2019-04-30T21:09:38.778Z,26.80
2019-04-30T21:12:08.911Z,27.00
2019-04-30T21:14:38.493Z,27.45
2019-04-30T21:17:07.843Z,25.97
2019-04-30T21:19:36.142Z,27.73
2019-04-30T21:22:04.987Z,27.27
2019-04-30T21:24:33.537Z,30.97
2019-04-30T21:27:01.936Z,26.93
2019-04-30T21:29:30.236Z,26.35
2019-04-30T21:32:00.188Z,27.67
2019-04-30T21:34:42.210Z,28.23
2019-04-30T21:37:10.751Z,30.52
2019-04-30T21:39:39.067Z,31.02
2019-04-30T21:42:09.298Z,31.05
2019-04-30T21:44:37.419Z,31.20
2019-04-30T21:47:05.714Z,32.65
2019-04-30T21:49:34.049Z,33.48
2019-04-30T21:52:02.351Z,33.48
2019-04-30T21:54:31.180Z,29.92
2019-04-30T21:56:59.507Z,30.50
2019-04-30T21:59:28.732Z,32.65
2019-04-30T22:01:58.082Z,31.10
2019-04-30T22:04:26.461Z,34.50
2019-04-30T22:06:54.859Z,33.15
2019-04-30T22:09:24.025Z,32.50
2019-04-30T22:11:52.354Z,32.50
2019-04-30T22:14:20.709Z,32.95
2019-04-30T22:16:49.472Z,35.30
2019-04-30T22:19:17.811Z,34.45
2019-04-30T22:21:46.419Z,36.68
2019-04-30T22:24:15.011Z,33.40
2019-04-30T22:26:43.313Z,31.42
2019-04-30T22:29:11.634Z,34.13
2019-04-30T22:31:39.932Z,31.68
2019-04-30T22:34:08.868Z,34.90
2019-04-30T22:36:38.878Z,33.88
2019-04-30T22:39:12.243Z,33.90
2019-04-30T22:41:40.556Z,31.50
2019-04-30T22:44:08.915Z,35.17
2019-04-30T22:46:39.252Z,32.98
2019-04-30T22:49:07.836Z,34.78
2019-04-30T22:51:36.128Z,35.03
2019-04-30T22:54:04.507Z,36.40
2019-04-30T22:56:32.809Z,34.08
2019-04-30T22:59:01.114Z,38.17
2019-04-30T23:01:40.444Z,35.65
2019-04-30T23:04:16.242Z,35.58
2019-04-30T23:06:44.893Z,31.80
2019-04-30T23:09:13.762Z,35.45
2019-04-30T23:11:42.095Z,37.30
2019-04-30T23:14:10.385Z,38.85
2019-04-30T23:16:38.702Z,36.90
2019-04-30T23:19:06.991Z,34.65
2019-04-30T23:21:35.562Z,36.77
2019-04-30T23:24:03.866Z,39.75
2019-04-30T23:26:32.187Z,38.13
2019-04-30T23:29:00.793Z,36.70
2019-04-30T23:31:29.109Z,38.53
2019-04-30T23:33:57.412Z,35.65
2019-04-30T23:36:25.864Z,37.25
2019-04-30T23:38:54.165Z,41.98
2019-04-30T23:41:22.945Z,37.38
2019-04-30T23:43:51.240Z,34.50
2019-04-30T23:46:19.874Z,37.03
2019-04-30T23:48:48.669Z,37.05
2019-04-30T23:51:17.072Z,36.88
2019-04-30T23:53:45.365Z,40.78
2019-04-30T23:56:13.667Z,37.42
2019-04-30T23:58:42.006Z,40.50
